sensor_id;sensor_type;location;lat;lon;timestamp;pressure;altitude;pressure_sealevel;temperature;humidity
24746;BME280;12845;52.042;6.838;2023-02-03T00:02:11;67578.44;;;7.33;100.00
24746;BME280;12845;52.042;6.838;2023-02-03T00:04:36;67583.16;;;7.33;100.00
24746;BME280;12845;52.042;6.838;2023-02-03T00:14:17;67586.56;;;7.36;100.00
24746;BME280;12845;52.042;6.838;2023-02-03T00:16:42;67587.13;;;7.36;100.00
24746;BME280;12845;52.042;6.838;2023-02-03T00:19:07;67586.00;;;7.35;100.00
24746;BME280;12845;52.042;6.838;2023-02-03T00:21:32;67583.91;;;7.36;100.00
24746;BME280;12845;52.042;6.838;2023-02-03T00:23:58;67593.56;;;7.37;100.00
24746;BME280;12845;52.042;6.838;2023-02-03T00:26:23;67587.13;;;7.36;100.00
24746;BME280;12845;52.042;6.838;2023-02-03T00:28:50;67587.72;;;7.37;100.00
24746;BME280;12845;52.042;6.838;2023-02-03T00:31:16;67588.28;;;7.37;100.00
24746;BME280;12845;52.042;6.838;2023-02-03T00:33:42;67589.97;;;7.39;100.00
24746;BME280;12845;52.042;6.838;2023-02-03T00:36:07;67589.41;;;7.38;100.00
24746;BME280;12845;52.042;6.838;2023-02-03T00:38:32;67591.66;;;7.40;100.00
24746;BME280;12845;52.042;6.838;2023-02-03T00:40:58;67591.66;;;7.40;100.00
24746;BME280;12845;52.042;6.838;2023-02-03T00:43:23;67589.59;;;7.41;100.00
24746;BME280;12845;52.042;6.838;2023-02-03T00:45:48;67592.78;;;7.41;100.00
24746;BME280;12845;52.042;6.838;2023-02-03T00:50:39;67591.66;;;7.40;100.00
24746;BME280;12845;52.042;6.838;2023-02-03T00:55:29;67591.09;;;7.40;100.00
24746;BME280;12845;52.042;6.838;2023-02-03T00:57:54;67589.41;;;7.38;100.00
24746;BME280;12845;52.042;6.838;2023-02-03T01:00:20;67591.66;;;7.40;100.00
24746;BME280;12845;52.042;6.838;2023-02-03T01:02:45;67591.66;;;7.40;100.00
24746;BME280;12845;52.042;6.838;2023-02-03T01:05:11;67596.97;;;7.40;100.00
24746;BME280;12845;52.042;6.838;2023-02-03T01:10:01;67589.97;;;7.39;100.00
24746;BME280;12845;52.042;6.838;2023-02-03T01:17:17;67590.53;;;7.39;100.00
24746;BME280;12845;52.042;6.838;2023-02-03T01:19:42;67592.78;;;7.41;100.00
24746;BME280;12845;52.042;6.838;2023-02-03T01:22:07;67591.09;;;7.40;100.00
24746;BME280;12845;52.042;6.838;2023-02-03T01:24:32;67591.09;;;7.40;100.00
24746;BME280;12845;52.042;6.838;2023-02-03T01:26:57;67600.72;;;7.41;100.00
24746;BME280;12845;52.042;6.838;2023-02-03T01:29:23;67593.34;;;7.42;100.00
24746;BME280;12845;52.042;6.838;2023-02-03T01:31:48;67594.50;;;7.43;100.00
24746;BME280;12845;52.042;6.838;2023-02-03T01:34:13;67595.06;;;7.43;100.00
24746;BME280;12845;52.042;6.838;2023-02-03T01:36:40;67595.06;;;7.43;100.00
24746;BME280;12845;52.042;6.838;2023-02-03T01:39:05;67595.06;;;7.43;100.00
24746;BME280;12845;52.042;6.838;2023-02-03T01:41:32;67602.03;;;7.45;100.00
24746;BME280;12845;52.042;6.838;2023-02-03T01:43:58;67592.03;;;7.45;100.00
24746;BME280;12845;52.042;6.838;2023-02-03T01:46:32;67598.44;;;7.46;100.00
24746;BME280;12845;52.042;6.838;2023-02-03T01:51:24;67599.19;;;7.50;100.00
24746;BME280;12845;52.042;6.838;2023-02-03T01:53:50;67598.63;;;7.49;100.00
24746;BME280;12845;52.042;6.838;2023-02-03T01:56:16;67595.44;;;7.49;100.00
24746;BME280;12845;52.042;6.838;2023-02-03T01:58:41;67603.75;;;7.46;100.00
24746;BME280;12845;52.042;6.838;2023-02-03T02:01:07;67598.06;;;7.49;100.00
24746;BME280;12845;52.042;6.838;2023-02-03T02:03:40;67598.44;;;7.46;100.00
24746;BME280;12845;52.042;6.838;2023-02-03T02:06:07;67598.44;;;7.46;100.00
24746;BME280;12845;52.042;6.838;2023-02-03T02:08:33;67599.00;;;7.47;100.00
24746;BME280;12845;52.042;6.838;2023-02-03T02:13:24;67595.25;;;7.46;100.00
24746;BME280;12845;52.042;6.838;2023-02-03T02:31:50;67600.72;;;7.49;100.00
24746;BME280;12845;52.042;6.838;2023-02-03T02:34:41;67597.50;;;7.48;100.00
24746;BME280;12845;52.042;6.838;2023-02-03T02:37:29;67601.28;;;7.49;100.00
24746;BME280;12845;52.042;6.838;2023-02-03T02:41:03;67606.03;;;7.49;100.00
24746;BME280;12845;52.042;6.838;2023-02-03T02:48:07;67607.16;;;7.50;100.00
24746;BME280;12845;52.042;6.838;2023-02-03T02:50:36;67601.84;;;7.50;100.00
24746;BME280;12845;52.042;6.838;2023-02-03T02:53:02;67604.13;;;7.52;100.00
24746;BME280;12845;52.042;6.838;2023-02-03T02:55:29;67602.03;;;7.52;100.00
24746;BME280;12845;52.042;6.838;2023-02-03T02:57:57;67604.13;;;7.52;100.00
24746;BME280;12845;52.042;6.838;2023-02-03T03:00:24;67608.84;;;7.51;100.00
24746;BME280;12845;52.042;6.838;2023-02-03T03:02:53;67602.97;;;7.51;100.00
24746;BME280;12845;52.042;6.838;2023-02-03T03:05:19;67602.41;;;7.50;100.00
24746;BME280;12845;52.042;6.838;2023-02-03T03:07:46;67608.28;;;7.51;100.00
24746;BME280;12845;52.042;6.838;2023-02-03T03:10:13;67602.97;;;7.51;100.00
24746;BME280;12845;52.042;6.838;2023-02-03T03:12:48;67598.81;;;7.52;100.00
24746;BME280;12845;52.042;6.838;2023-02-03T03:15:20;67601.84;;;7.50;100.00
24746;BME280;12845;52.042;6.838;2023-02-03T03:22:39;67601.28;;;7.49;100.00
24746;BME280;12845;52.042;6.838;2023-02-03T03:25:08;67601.84;;;7.50;100.00
24746;BME280;12845;52.042;6.838;2023-02-03T03:27:37;67602.97;;;7.51;100.00
24746;BME280;12845;52.042;6.838;2023-02-03T03:32:29;67601.47;;;7.52;100.00
24746;BME280;12845;52.042;6.838;2023-02-03T03:48:35;67605.44;;;7.55;100.00
24746;BME280;12845;52.042;6.838;2023-02-03T03:50:36;67608.06;;;7.55;100.00
24746;BME280;12845;52.042;6.838;2023-02-03T03:53:03;67608.63;;;7.56;100.00
24746;BME280;12845;52.042;6.838;2023-02-03T03:55:31;67613.38;;;7.55;100.00
24746;BME280;12845;52.042;6.838;2023-02-03T03:58:09;67607.69;;;7.57;100.00
24746;BME280;12845;52.042;6.838;2023-02-03T04:00:36;67608.25;;;7.58;100.00
24746;BME280;12845;52.042;6.838;2023-02-03T04:03:15;67610.34;;;7.57;100.00
24746;BME280;12845;52.042;6.838;2023-02-03T04:05:41;67613.19;;;7.60;100.00
24746;BME280;12845;52.042;6.838;2023-02-03T04:08:07;67609.38;;;7.59;100.00
24746;BME280;12845;52.042;6.838;2023-02-03T04:10:33;67614.31;;;7.61;100.00
24746;BME280;12845;52.042;6.838;2023-02-03T04:12:59;67615.41;;;7.62;100.00
24746;BME280;12845;52.042;6.838;2023-02-03T04:15:24;67612.78;;;7.62;100.00
24746;BME280;12845;52.042;6.838;2023-02-03T04:17:50;67621.31;;;7.62;100.00
24746;BME280;12845;52.042;6.838;2023-02-03T04:20:15;67615.41;;;7.62;100.00
24746;BME280;12845;52.042;6.838;2023-02-03T04:22:40;67617.69;;;7.64;100.00
24746;BME280;12845;52.042;6.838;2023-02-03T04:25:06;67614.31;;;7.61;100.00
24746;BME280;12845;52.042;6.838;2023-02-03T04:27:31;67619.59;;;7.61;100.00
24746;BME280;12845;52.042;6.838;2023-02-03T04:34:47;67619.03;;;7.60;100.00
24746;BME280;12845;52.042;6.838;2023-02-03T04:37:12;67611.47;;;7.58;100.00
24746;BME280;12845;52.042;6.838;2023-02-03T04:51:43;67621.09;;;7.67;100.00
24746;BME280;12845;52.042;6.838;2023-02-03T04:54:09;67621.09;;;7.67;100.00
24746;BME280;12845;52.042;6.838;2023-02-03T04:56:34;67620.72;;;7.69;100.00
24746;BME280;12845;52.042;6.838;2023-02-03T04:59:00;67623.91;;;7.69;100.00
24746;BME280;12845;52.042;6.838;2023-02-03T05:01:25;67625.63;;;7.71;100.00
24746;BME280;12845;52.042;6.838;2023-02-03T05:03:50;67624.66;;;7.73;100.00
24746;BME280;12845;52.042;6.838;2023-02-03T05:13:31;67630.34;;;7.78;100.00
24746;BME280;12845;52.042;6.838;2023-02-03T05:15:56;67634.09;;;7.79;100.00
24746;BME280;12845;52.042;6.838;2023-02-03T05:18:22;67632.41;;;7.77;100.00
24746;BME280;12845;52.042;6.838;2023-02-03T05:20:47;67639.41;;;7.79;100.00
24746;BME280;12845;52.042;6.838;2023-02-03T05:28:02;67635.03;;;7.84;100.00
24746;BME280;12845;52.042;6.838;2023-02-03T05:30:28;67637.69;;;7.84;100.00
24746;BME280;12845;52.042;6.838;2023-02-03T05:32:53;67640.34;;;7.84;100.00
24746;BME280;12845;52.042;6.838;2023-02-03T05:40:09;67643.34;;;7.89;100.00
24746;BME280;12845;52.042;6.838;2023-02-03T05:42:53;67645.44;;;7.89;100.00
24746;BME280;12845;52.042;6.838;2023-02-03T05:45:19;67654.69;;;7.93;100.00
24746;BME280;12845;52.042;6.838;2023-02-03T05:47:44;67649.41;;;7.93;100.00
24746;BME280;12845;52.042;6.838;2023-02-03T05:50:09;67651.09;;;7.94;100.00
24746;BME280;12845;52.042;6.838;2023-02-03T05:52:34;67649.41;;;7.93;100.00
24746;BME280;12845;52.042;6.838;2023-02-03T05:55:00;67646.38;;;7.95;100.00
24746;BME280;12845;52.042;6.838;2023-02-03T05:57:25;67655.06;;;7.98;100.00
24746;BME280;12845;52.042;6.838;2023-02-03T05:59:50;67657.31;;;8.00;100.00
24746;BME280;12845;52.042;6.838;2023-02-03T06:02:15;67657.31;;;8.00;100.00
24746;BME280;12845;52.042;6.838;2023-02-03T06:04:40;67659.00;;;8.01;100.00
24746;BME280;12845;52.042;6.838;2023-02-03T06:09:31;67659.56;;;8.02;100.00
24746;BME280;12845;52.042;6.838;2023-02-03T06:11:56;67660.72;;;8.03;100.00
24746;BME280;12845;52.042;6.838;2023-02-03T06:19:12;67660.72;;;8.03;100.00
24746;BME280;12845;52.042;6.838;2023-02-03T06:21:37;67658.63;;;8.03;100.00
24746;BME280;12845;52.042;6.838;2023-02-03T06:28:53;67652.00;;;8.00;100.00
24746;BME280;12845;52.042;6.838;2023-02-03T06:31:18;67658.44;;;8.01;100.00
24746;BME280;12845;52.042;6.838;2023-02-03T06:33:43;67658.44;;;8.01;100.00
24746;BME280;12845;52.042;6.838;2023-02-03T06:36:09;67657.31;;;8.00;100.00
24746;BME280;12845;52.042;6.838;2023-02-03T06:38:34;67654.09;;;7.99;100.00
24746;BME280;12845;52.042;6.838;2023-02-03T06:43:24;67654.66;;;8.00;100.00
24746;BME280;12845;52.042;6.838;2023-02-03T06:45:49;67658.44;;;8.01;100.00
24746;BME280;12845;52.042;6.838;2023-02-03T06:50:40;67658.44;;;8.01;100.00
24746;BME280;12845;52.042;6.838;2023-02-03T06:53:05;67661.28;;;8.03;100.00
24746;BME280;12845;52.042;6.838;2023-02-03T06:55:31;67659.75;;;8.04;100.00
24746;BME280;12845;52.042;6.838;2023-02-03T06:57:56;67654.28;;;8.02;100.00
24746;BME280;12845;52.042;6.838;2023-02-03T07:02:51;67657.31;;;8.00;100.00
24746;BME280;12845;52.042;6.838;2023-02-03T07:07:42;67659.00;;;8.01;100.00
24746;BME280;12845;52.042;6.838;2023-02-03T07:10:07;67655.44;;;8.03;100.00
24746;BME280;12845;52.042;6.838;2023-02-03T07:15:00;67661.84;;;8.04;100.00
24746;BME280;12845;52.042;6.838;2023-02-03T07:17:25;67662.41;;;8.04;100.00
24746;BME280;12845;52.042;6.838;2023-02-03T07:22:15;67658.44;;;8.01;100.00
24746;BME280;12845;52.042;6.838;2023-02-03T07:24:41;67655.25;;;8.00;100.00
24746;BME280;12845;52.042;6.838;2023-02-03T07:27:06;67657.31;;;8.00;100.00
24746;BME280;12845;52.042;6.838;2023-02-03T07:29:31;67657.31;;;8.00;100.00
24746;BME280;12845;52.042;6.838;2023-02-03T07:34:22;67657.31;;;8.00;100.00
24746;BME280;12845;52.042;6.838;2023-02-03T07:36:47;67654.66;;;8.00;100.00
24746;BME280;12845;52.042;6.838;2023-02-03T07:41:37;67663.19;;;8.00;100.00
24746;BME280;12845;52.042;6.838;2023-02-03T07:48:53;67656.75;;;7.99;100.00
24746;BME280;12845;52.042;6.838;2023-02-03T07:53:43;67651.25;;;7.97;100.00
24746;BME280;12845;52.042;6.838;2023-02-03T07:58:35;67652.78;;;7.96;100.00
24746;BME280;12845;52.042;6.838;2023-02-03T08:01:01;67653.91;;;7.97;100.00
24746;BME280;12845;52.042;6.838;2023-02-03T08:08:23;67651.66;;;7.95;100.00
24746;BME280;12845;52.042;6.838;2023-02-03T08:10:49;67653.91;;;7.97;100.00
24746;BME280;12845;52.042;6.838;2023-02-03T08:13:14;67652.78;;;7.96;100.00
24746;BME280;12845;52.042;6.838;2023-02-03T08:22:55;67649.00;;;7.95;100.00
24746;BME280;12845;52.042;6.838;2023-02-03T08:25:20;67652.78;;;7.96;100.00
24746;BME280;12845;52.042;6.838;2023-02-03T08:30:12;67652.22;;;7.95;100.00
24746;BME280;12845;52.042;6.838;2023-02-03T08:32:37;67652.78;;;7.96;100.00
24746;BME280;12845;52.042;6.838;2023-02-03T08:35:03;67648.44;;;7.94;100.00
24746;BME280;12845;52.042;6.838;2023-02-03T08:37:28;67650.53;;;7.94;100.00
24746;BME280;12845;52.042;6.838;2023-02-03T08:39:56;67651.09;;;7.94;100.00
24746;BME280;12845;52.042;6.838;2023-02-03T08:42:22;67651.09;;;7.94;100.00
24746;BME280;12845;52.042;6.838;2023-02-03T08:44:47;67649.41;;;7.93;100.00
24746;BME280;12845;52.042;6.838;2023-02-03T08:47:15;67649.41;;;7.93;100.00
24746;BME280;12845;52.042;6.838;2023-02-03T08:49:40;67650.53;;;7.94;100.00
24746;BME280;12845;52.042;6.838;2023-02-03T08:52:06;67647.88;;;7.94;100.00
24746;BME280;12845;52.042;6.838;2023-02-03T08:56:57;67655.81;;;7.94;100.00
24746;BME280;12845;52.042;6.838;2023-02-03T09:06:38;67651.84;;;7.97;100.00
24746;BME280;12845;52.042;6.838;2023-02-03T09:09:03;67657.31;;;8.00;100.00
24746;BME280;12845;52.042;6.838;2023-02-03T09:11:29;67655.81;;;8.01;100.00
24746;BME280;12845;52.042;6.838;2023-02-03T09:13:54;67656.94;;;8.02;100.00
24746;BME280;12845;52.042;6.838;2023-02-03T09:16:21;67660.72;;;8.03;100.00
24746;BME280;12845;52.042;6.838;2023-02-03T09:18:47;67661.84;;;8.04;100.00
24746;BME280;12845;52.042;6.838;2023-02-03T09:23:38;67660.31;;;8.05;100.00
24746;BME280;12845;52.042;6.838;2023-02-03T09:26:05;67662.59;;;8.07;100.00
24746;BME280;12845;52.042;6.838;2023-02-03T09:31:05;67668.63;;;8.10;100.00
24746;BME280;12845;52.042;6.838;2023-02-03T09:33:30;67670.34;;;8.11;100.00
24746;BME280;12845;52.042;6.838;2023-02-03T09:35:56;67673.16;;;8.14;100.00
24746;BME280;12845;52.042;6.838;2023-02-03T09:38:21;67674.50;;;8.18;100.00
24746;BME280;12845;52.042;6.838;2023-02-03T09:40:51;67685.84;;;8.21;100.00
24746;BME280;12845;52.042;6.838;2023-02-03T09:43:37;67684.50;;;8.24;100.00
24746;BME280;12845;52.042;6.838;2023-02-03T09:46:06;67687.50;;;8.29;100.00
24746;BME280;12845;52.042;6.838;2023-02-03T09:48:34;67696.41;;;8.35;100.00
24746;BME280;12845;52.042;6.838;2023-02-03T09:51:01;67700.94;;;8.39;100.00
24746;BME280;12845;52.042;6.838;2023-02-03T09:53:29;67704.50;;;8.45;100.00
24746;BME280;12845;52.042;6.838;2023-02-03T09:55:57;67716.44;;;8.48;100.00
24746;BME280;12845;52.042;6.838;2023-02-03T09:58:23;67712.28;;;8.49;100.00
24746;BME280;12845;52.042;6.838;2023-02-03T10:00:53;67717.34;;;8.54;100.00
24746;BME280;12845;52.042;6.838;2023-02-03T10:03:55;67719.63;;;8.56;100.00
24746;BME280;12845;52.042;6.838;2023-02-03T10:06:27;67722.47;;;8.58;100.00
24746;BME280;12845;52.042;6.838;2023-02-03T10:08:59;67725.28;;;8.61;100.00
24746;BME280;12845;52.042;6.838;2023-02-03T10:18:49;67737.75;;;8.72;100.00
24746;BME280;12845;52.042;6.838;2023-02-03T10:21:20;67734.72;;;8.74;100.00
24746;BME280;12845;52.042;6.838;2023-02-03T10:23:49;67737.94;;;8.75;100.00
24746;BME280;12845;52.042;6.838;2023-02-03T10:26:20;67742.28;;;8.76;100.00
24746;BME280;12845;52.042;6.838;2023-02-03T10:36:03;67746.84;;;8.80;100.00
24746;BME280;12845;52.042;6.838;2023-02-03T10:38:58;67747.97;;;8.81;100.00
24746;BME280;12845;52.042;6.838;2023-02-03T10:41:19;67745.31;;;8.81;100.00
24746;BME280;12845;52.042;6.838;2023-02-03T10:43:46;67749.09;;;8.82;100.00
24746;BME280;12845;52.042;6.838;2023-02-03T10:48:40;67754.19;;;8.87;100.00
24746;BME280;12845;52.042;6.838;2023-02-03T10:51:27;67755.88;;;8.89;100.00
24746;BME280;12845;52.042;6.838;2023-02-03T10:53:51;67759.28;;;8.92;100.00
24746;BME280;12845;52.042;6.838;2023-02-03T10:56:21;67761.53;;;8.94;100.00
24746;BME280;12845;52.042;6.838;2023-02-03T10:58:57;67763.81;;;8.96;100.00
24746;BME280;12845;52.042;6.838;2023-02-03T11:03:59;67757.78;;;8.93;100.00
24746;BME280;12845;52.042;6.838;2023-02-03T11:06:25;67757.59;;;8.90;100.00
24746;BME280;12845;52.042;6.838;2023-02-03T11:08:51;67749.81;;;8.86;100.00
24746;BME280;12845;52.042;6.838;2023-02-03T11:11:21;67753.25;;;8.81;100.00
24746;BME280;12845;52.042;6.838;2023-02-03T11:13:52;67745.13;;;8.79;100.00
24746;BME280;12845;52.042;6.838;2023-02-03T11:16:18;67742.28;;;8.76;100.00
24746;BME280;12845;52.042;6.838;2023-02-03T11:18:55;67738.88;;;8.73;100.00
24746;BME280;12845;52.042;6.838;2023-02-03T11:21:26;67735.50;;;8.70;100.00
24746;BME280;12845;52.042;6.838;2023-02-03T11:23:53;67722.25;;;8.63;100.00
24746;BME280;12845;52.042;6.838;2023-02-03T11:26:26;67722.47;;;8.58;100.00
24746;BME280;12845;52.042;6.838;2023-02-03T11:28:53;67713.56;;;8.53;100.00
24746;BME280;12845;52.042;6.838;2023-02-03T11:31:35;67711.72;;;8.49;100.00
24746;BME280;12845;52.042;6.838;2023-02-03T11:36:27;67702.66;;;8.41;100.00
24746;BME280;12845;52.042;6.838;2023-02-03T11:39:03;67696.97;;;8.35;100.00
24746;BME280;12845;52.042;6.838;2023-02-03T11:41:35;67689.00;;;8.28;100.00
24746;BME280;12845;52.042;6.838;2023-02-03T11:46:26;67683.94;;;8.24;100.00
24746;BME280;12845;52.042;6.838;2023-02-03T11:56:49;67693.19;;;8.27;100.00
24746;BME280;12845;52.042;6.838;2023-02-03T12:02:29;67695.84;;;8.34;100.00
24746;BME280;12845;52.042;6.838;2023-02-03T12:05:05;67691.66;;;8.35;100.00
24746;BME280;12845;52.042;6.838;2023-02-03T12:30:19;67671.47;;;8.12;100.00
24746;BME280;12845;52.042;6.838;2023-02-03T12:32:48;67673.16;;;8.14;100.00
24746;BME280;12845;52.042;6.838;2023-02-03T12:35:26;67676.00;;;8.17;100.00
24746;BME280;12845;52.042;6.838;2023-02-03T12:40:29;67681.09;;;8.21;100.00
24746;BME280;12845;52.042;6.838;2023-02-03T12:43:02;67683.38;;;8.23;100.00
24746;BME280;12845;52.042;6.838;2023-02-03T12:48:02;67689.59;;;8.29;100.00
24746;BME280;12845;52.042;6.838;2023-02-03T12:50:39;67690.16;;;8.29;100.00
24746;BME280;12845;52.042;6.838;2023-02-03T12:55:38;67689.59;;;8.29;100.00
24746;BME280;12845;52.042;6.838;2023-02-03T12:58:06;67690.91;;;8.32;100.00
24746;BME280;12845;52.042;6.838;2023-02-03T13:00:39;67691.28;;;8.30;100.00
24746;BME280;12845;52.042;6.838;2023-02-03T13:03:23;67690.16;;;8.29;100.00
24746;BME280;12845;52.042;6.838;2023-02-03T13:05:53;67697.72;;;8.31;100.00
24746;BME280;12845;52.042;6.838;2023-02-03T13:10:48;67693.56;;;8.32;100.00
24746;BME280;12845;52.042;6.838;2023-02-03T13:13:17;67689.19;;;8.31;100.00
24746;BME280;12845;52.042;6.838;2023-02-03T13:18:25;67690.34;;;8.32;100.00
24746;BME280;12845;52.042;6.838;2023-02-03T13:20:52;67689.19;;;8.31;100.00
24746;BME280;12845;52.042;6.838;2023-02-03T13:23:20;67687.50;;;8.29;100.00
24746;BME280;12845;52.042;6.838;2023-02-03T13:25:49;67694.91;;;8.29;100.00
24746;BME280;12845;52.042;6.838;2023-02-03T13:28:33;67689.00;;;8.28;100.00
24746;BME280;12845;52.042;6.838;2023-02-03T13:33:51;67688.47;;;8.28;100.00
24746;BME280;12845;52.042;6.838;2023-02-03T13:36:27;67692.06;;;8.26;100.00
24746;BME280;12845;52.042;6.838;2023-02-03T13:46:26;67686.22;;;8.26;100.00
24746;BME280;12845;52.042;6.838;2023-02-03T13:48:53;67684.50;;;8.24;100.00
24746;BME280;12845;52.042;6.838;2023-02-03T13:51:31;67688.69;;;8.23;100.00
24746;BME280;12845;52.042;6.838;2023-02-03T13:56:25;67686.22;;;8.26;100.00
24746;BME280;12845;52.042;6.838;2023-02-03T14:01:37;67689.81;;;8.24;100.00
24746;BME280;12845;52.042;6.838;2023-02-03T14:16:34;67682.78;;;8.23;100.00
24746;BME280;12845;52.042;6.838;2023-02-03T14:18:59;67677.88;;;8.21;100.00
24746;BME280;12845;52.042;6.838;2023-02-03T14:21:25;67681.09;;;8.21;100.00
24746;BME280;12845;52.042;6.838;2023-02-03T14:23:58;67676.59;;;8.17;100.00
24746;BME280;12845;52.042;6.838;2023-02-03T14:31:17;67675.44;;;8.16;100.00
24746;BME280;12845;52.042;6.838;2023-02-03T14:38:48;67668.44;;;8.14;100.00
24746;BME280;12845;52.042;6.838;2023-02-03T14:41:14;67673.75;;;8.14;100.00
24746;BME280;12845;52.042;6.838;2023-02-03T14:54:24;67672.03;;;8.13;100.00
24746;BME280;12845;52.042;6.838;2023-02-03T14:59:42;67670.91;;;8.12;100.00
24746;BME280;12845;52.042;6.838;2023-02-03T15:04:34;67669.75;;;8.11;100.00
24746;BME280;12845;52.042;6.838;2023-02-03T15:06:59;67667.50;;;8.09;100.00
24746;BME280;12845;52.042;6.838;2023-02-03T15:09:26;67664.13;;;8.06;100.00
24746;BME280;12845;52.042;6.838;2023-02-03T15:11:52;67664.69;;;8.06;100.00
24746;BME280;12845;52.042;6.838;2023-02-03T15:16:43;67660.31;;;8.05;100.00
24746;BME280;12845;52.042;6.838;2023-02-03T15:21:39;67664.69;;;8.06;100.00
24746;BME280;12845;52.042;6.838;2023-02-03T15:24:09;67660.72;;;8.03;100.00
24746;BME280;12845;52.042;6.838;2023-02-03T15:26:43;67662.97;;;8.05;100.00
24746;BME280;12845;52.042;6.838;2023-02-03T15:29:15;67659.00;;;8.01;100.00
24746;BME280;12845;52.042;6.838;2023-02-03T15:31:42;67655.06;;;7.98;100.00
24746;BME280;12845;52.042;6.838;2023-02-03T15:36:36;67647.13;;;7.90;100.00
24746;BME280;12845;52.042;6.838;2023-02-03T15:41:47;67642.03;;;7.86;100.00
24746;BME280;12845;52.042;6.838;2023-02-03T15:46:39;67639.22;;;7.83;100.00
24746;BME280;12845;52.042;6.838;2023-02-03T15:51:37;67634.66;;;7.79;100.00
24746;BME280;12845;52.042;6.838;2023-02-03T15:56:32;67628.44;;;7.74;100.00
24746;BME280;12845;52.042;6.838;2023-02-03T15:59:02;67622.00;;;7.73;100.00
24746;BME280;12845;52.042;6.838;2023-02-03T16:01:27;67624.47;;;7.70;100.00
24746;BME280;12845;52.042;6.838;2023-02-03T16:03:53;67623.34;;;7.69;100.00
24746;BME280;12845;52.042;6.838;2023-02-03T16:11:26;67615.06;;;7.57;100.00
24746;BME280;12845;52.042;6.838;2023-02-03T16:13:52;67613.94;;;7.56;100.00
24746;BME280;12845;52.042;6.838;2023-02-03T16:18:52;67609.41;;;7.52;100.00
24746;BME280;12845;52.042;6.838;2023-02-03T16:23:48;67592.78;;;7.41;100.00
24746;BME280;12845;52.042;6.838;2023-02-03T16:26:17;67598.09;;;7.41;100.00
24746;BME280;12845;52.042;6.838;2023-02-03T16:28:43;67589.00;;;7.40;100.00
24746;BME280;12845;52.042;6.838;2023-02-03T16:31:39;67584.88;;;7.34;100.00
24746;BME280;12845;52.042;6.838;2023-02-03T16:34:25;67583.34;;;7.35;100.00
24746;BME280;12845;52.042;6.838;2023-02-03T16:37:12;67590.72;;;7.35;100.00
24746;BME280;12845;52.042;6.838;2023-02-03T16:42:40;67580.34;;;7.30;100.00
24746;BME280;12845;52.042;6.838;2023-02-03T16:45:24;67574.28;;;7.27;100.00
24746;BME280;12845;52.042;6.838;2023-02-03T16:48:09;67576.00;;;7.29;100.00
24746;BME280;12845;52.042;6.838;2023-02-03T16:55:45;67570.72;;;7.21;100.00
24746;BME280;12845;52.042;6.838;2023-02-03T16:58:10;67570.72;;;7.21;100.00
24746;BME280;12845;52.042;6.838;2023-02-03T17:00:37;67570.72;;;7.21;100.00
24746;BME280;12845;52.042;6.838;2023-02-03T17:03:05;67570.72;;;7.21;100.00
24746;BME280;12845;52.042;6.838;2023-02-03T17:05:30;67569.78;;;7.23;100.00
24746;BME280;12845;52.042;6.838;2023-02-03T17:10:25;67572.44;;;7.23;100.00
24746;BME280;12845;52.042;6.838;2023-02-03T17:15:15;67566.75;;;7.18;100.00
24746;BME280;12845;52.042;6.838;2023-02-03T17:17:40;67565.25;;;7.19;100.00
24746;BME280;12845;52.042;6.838;2023-02-03T17:22:31;67566.75;;;7.18;100.00
24746;BME280;12845;52.042;6.838;2023-02-03T17:29:47;67565.66;;;7.17;100.00
24746;BME280;12845;52.042;6.838;2023-02-03T17:34:39;67564.50;;;7.16;100.00
24746;BME280;12845;52.042;6.838;2023-02-03T17:37:05;67564.50;;;7.16;100.00
24746;BME280;12845;52.042;6.838;2023-02-03T17:39:30;67562.25;;;7.14;100.00
24746;BME280;12845;52.042;6.838;2023-02-03T17:41:55;67558.47;;;7.13;100.00
24746;BME280;12845;52.042;6.838;2023-02-03T17:44:20;67559.97;;;7.12;100.00
24746;BME280;12845;52.042;6.838;2023-02-03T17:46:46;67559.41;;;7.11;100.00
24746;BME280;12845;52.042;6.838;2023-02-03T17:49:11;67561.09;;;7.13;100.00
24746;BME280;12845;52.042;6.838;2023-02-03T17:51:36;67560.53;;;7.12;100.00
24746;BME280;12845;52.042;6.838;2023-02-03T17:54:02;67555.06;;;7.10;100.00
24746;BME280;12845;52.042;6.838;2023-02-03T17:56:30;67557.72;;;7.10;100.00
24746;BME280;12845;52.042;6.838;2023-02-03T17:58:57;67560.19;;;7.07;100.00
24746;BME280;12845;52.042;6.838;2023-02-03T18:01:23;67558.50;;;7.06;100.00
24746;BME280;12845;52.042;6.838;2023-02-03T18:06:15;67546.97;;;7.00;100.00
24746;BME280;12845;52.042;6.838;2023-02-03T18:08:41;67545.25;;;6.98;100.00
24746;BME280;12845;52.042;6.838;2023-02-03T18:11:07;67542.06;;;6.98;100.00
24746;BME280;12845;52.042;6.838;2023-02-03T18:13:35;67541.31;;;6.95;100.00
24746;BME280;12845;52.042;6.838;2023-02-03T18:16:02;67540.19;;;6.94;100.00
24746;BME280;12845;52.042;6.838;2023-02-03T18:20:53;67541.88;;;6.95;100.00
24746;BME280;12845;52.042;6.838;2023-02-03T18:25:44;67533.97;;;6.88;100.00
24746;BME280;12845;52.042;6.838;2023-02-03T18:28:09;67531.69;;;6.86;100.00
24746;BME280;12845;52.042;6.838;2023-02-03T18:33:00;67530.00;;;6.85;100.00
24746;BME280;12845;52.042;6.838;2023-02-03T18:35:26;67533.59;;;6.83;100.00
24746;BME280;12845;52.042;6.838;2023-02-03T18:37:51;67530.56;;;6.85;100.00
24746;BME280;12845;52.042;6.838;2023-02-03T18:40:16;67525.47;;;6.81;100.00
24746;BME280;12845;52.042;6.838;2023-02-03T18:49:57;67517.56;;;6.73;100.00
24746;BME280;12845;52.042;6.838;2023-02-03T18:54:48;67508.13;;;6.67;100.00
24746;BME280;12845;52.042;6.838;2023-02-03T18:57:13;67504.16;;;6.64;100.00
24746;BME280;12845;52.042;6.838;2023-02-03T19:04:30;67496.81;;;6.57;100.00
24746;BME280;12845;52.042;6.838;2023-02-03T19:06:55;67497.75;;;6.55;100.00
24746;BME280;12845;52.042;6.838;2023-02-03T19:09:20;67502.47;;;6.55;100.00
24746;BME280;12845;52.042;6.838;2023-02-03T19:11:47;67494.00;;;6.54;100.00
24746;BME280;12845;52.042;6.838;2023-02-03T19:14:13;67496.63;;;6.54;100.00